Карточка аэропорта UMKK

Внимание!
Информация на этой странице в стадии наполнения.
Если вы не увидели какой-то информации, или заметили неточность - пожалуйста сообщите нам!
Спасибо!
Команда RU-STAFF
Название аэропортаХраброво
Название аэропорта (англ.)Khrabrovo
Превышение43 ft. (13.1 m.)
Координаты54°53.4', 20°35.55'
Высота перехода4000ft
Эшелон переходаFL50 (QNH>=1013hPa); FL60 (QNH<1013hPa); FL50 (QNH<977hPa);
Коды ответчика6620-6637
Зона ОрВДКалининград РПИ (UMKK)
Данные METARUMKK 071100Z 22003MPS 9000 SCT005 OVC015 03/03 Q1001 R24/290095 NOSIG RMK QBB150 OBST OBSC QFE750/1000
Проноз погоды (TAF)UMKK 070755Z 0709/0809 20003MPS 6000 -RA BKN004 OVC016 TEMPO 0709/0718 1000 SHRASN BR BKN003 BKN010CB BECMG 0710/0712 25005G10MPS BECMG 0718/0720 2000 SHSN BR BKN004 BKN012CB TEMPO 0720/0806 0500 +SHSN BKN002 BKN010CB BECMG 0721/0723 26009G16MPS
NOTAMshow/hide NOTAM
AWOS   TABLE

Информация о ВПП

ВПП Длина ВПП (м.) Покрытие Курс ВПП Частота ILS
243350Асфальтобетон240109.5
063350Асфальтобетон60110.3

Диспетчерские позиции

Позывной Наименование органа УВД Частота
UMKK_APPКалининград-Подход126.0
UMKK_TWRКалининград-Вышка127.2



Спутниковое изображение